createdAt,value
2019-05-21T02:25:27.371Z,12.33
2019-05-21T02:27:57.622Z,11.87
2019-05-21T02:30:30.166Z,11.18
2019-05-21T02:33:01.766Z,11.65
2019-05-21T02:35:43.766Z,11.48
2019-05-21T02:38:05.634Z,10.00
2019-05-21T02:40:35.838Z,11.40
2019-05-21T02:43:06.061Z,11.47
2019-05-21T02:45:37.328Z,10.05
2019-05-21T02:48:07.469Z,10.37
2019-05-21T02:50:37.778Z,11.40
2019-05-21T02:53:07.933Z,10.57
2019-05-21T02:55:39.194Z,9.53
2019-05-21T02:58:09.448Z,10.17
2019-05-21T03:01:04.692Z,9.87
2019-05-21T03:03:35.637Z,9.03
2019-05-21T03:06:13.949Z,10.03
2019-05-21T03:08:39.362Z,10.40
2019-05-21T03:11:10.469Z,9.40
2019-05-21T03:13:41.416Z,9.37
2019-05-21T03:16:11.650Z,9.60
2019-05-21T03:18:41.848Z,9.55
2019-05-21T03:21:12.800Z,8.83
2019-05-21T03:23:43.114Z,8.97
2019-05-21T03:26:13.305Z,8.68
2019-05-21T03:28:44.263Z,8.87
2019-05-21T03:31:14.530Z,8.33
2019-05-21T03:33:44.691Z,8.70
2019-05-21T03:36:31.511Z,8.17
2019-05-21T03:38:46.791Z,8.30
2019-05-21T03:41:17.967Z,8.10
2019-05-21T03:43:48.176Z,8.13
2019-05-21T03:46:18.375Z,8.70
2019-05-21T03:48:52.455Z,9.50
2019-05-21T03:51:23.419Z,8.63
2019-05-21T03:53:55.817Z,9.37
2019-05-21T03:56:25.948Z,8.67
2019-05-21T03:58:56.201Z,9.00
2019-05-21T04:01:26.404Z,9.17
2019-05-21T04:04:00.174Z,8.80
2019-05-21T04:06:30.607Z,8.70
2019-05-21T04:09:00.844Z,8.87
2019-05-21T04:11:32.041Z,8.47
2019-05-21T04:14:02.259Z,8.90
2019-05-21T04:16:43.714Z,10.50
2019-05-21T04:19:17.608Z,8.40
2019-05-21T04:21:50.997Z,8.07
2019-05-21T04:24:21.267Z,8.70
2019-05-21T04:26:51.570Z,8.50
2019-05-21T04:29:21.785Z,8.00
2019-05-21T04:31:52.929Z,8.67
2019-05-21T04:34:25.772Z,8.55
2019-05-21T04:37:10.132Z,8.30
2019-05-21T04:39:27.911Z,8.13
2019-05-21T04:41:58.084Z,8.30
2019-05-21T04:44:29.061Z,8.90
2019-05-21T04:46:59.223Z,8.10
2019-05-21T04:49:29.676Z,8.70
2019-05-21T04:52:04.406Z,9.10
2019-05-21T04:54:35.024Z,8.63
2019-05-21T04:57:05.210Z,8.60
2019-05-21T04:59:37.008Z,9.30
2019-05-21T05:02:07.213Z,8.73
2019-05-21T05:04:37.430Z,8.70
2019-05-21T05:07:09.270Z,8.33
2019-05-21T05:09:39.512Z,7.80
2019-05-21T05:12:09.788Z,8.30
2019-05-21T05:14:39.963Z,8.30
2019-05-21T05:17:10.322Z,8.13
2019-05-21T05:19:40.607Z,8.10
2019-05-21T05:22:11.680Z,8.03
2019-05-21T05:24:42.066Z,8.13
2019-05-21T05:27:13.991Z,8.73
2019-05-21T05:29:44.308Z,8.10
2019-05-21T05:32:14.571Z,8.60
2019-05-21T05:34:44.941Z,8.27
2019-05-21T05:37:15.115Z,8.43
2019-05-21T05:39:46.166Z,8.20
2019-05-21T05:42:18.828Z,10.60
2019-05-21T05:44:49.182Z,10.40
2019-05-21T05:47:19.409Z,9.77
2019-05-21T05:49:52.238Z,9.33
2019-05-21T05:52:22.503Z,8.50
2019-05-21T05:54:52.722Z,8.70
2019-05-21T05:57:23.700Z,8.98
2019-05-21T05:59:53.967Z,9.40
2019-05-21T06:02:24.210Z,9.53
2019-05-21T06:04:55.287Z,9.48
2019-05-21T06:07:26.520Z,11.70
2019-05-21T06:09:57.368Z,8.90
2019-05-21T06:12:27.662Z,9.90
2019-05-21T06:14:57.885Z,8.77
2019-05-21T06:17:28.099Z,8.80
2019-05-21T06:19:59.184Z,8.90
2019-05-21T06:22:29.433Z,8.50
2019-05-21T06:25:00.439Z,9.20
2019-05-21T06:27:30.712Z,8.97
2019-05-21T06:30:01.014Z,9.63
2019-05-21T06:32:31.262Z,9.70
2019-05-21T06:35:01.620Z,9.30
2019-05-21T06:37:31.890Z,10.50
2019-05-21T06:40:02.167Z,10.43
2019-05-21T06:42:32.418Z,9.30
2019-05-21T06:45:03.313Z,10.80
2019-05-21T06:47:33.622Z,9.37
2019-05-21T06:50:04.966Z,10.17
2019-05-21T06:52:35.140Z,10.10
2019-05-21T06:55:06.952Z,10.10
2019-05-21T06:57:37.902Z,10.80
2019-05-21T07:00:08.273Z,10.50
2019-05-21T07:02:38.557Z,10.43
2019-05-21T07:05:08.927Z,11.10
2019-05-21T07:07:39.366Z,10.77
2019-05-21T07:10:09.582Z,10.80
2019-05-21T07:12:39.757Z,10.00
2019-05-21T07:15:10.025Z,13.93
2019-05-21T07:17:40.220Z,11.53
2019-05-21T07:20:10.720Z,11.30
2019-05-21T07:22:40.938Z,11.23
2019-05-21T07:25:11.297Z,10.30
2019-05-21T07:27:42.384Z,10.27
2019-05-21T07:30:12.783Z,10.80
2019-05-21T07:32:43.278Z,9.27
2019-05-21T07:35:14.220Z,9.50
2019-05-21T07:37:44.536Z,9.80
2019-05-21T07:40:15.894Z,9.50
